Time;durP1;ratioP1;P1;durP2;ratioP2;P2;SDS_P1;SDS_P2;PMS_P1;PMS_P2;Temp;Humidity;BMP_temperature;BMP_pressure;BME280_temperature;BME280_humidity;BME280_pressure;Samples;Min_cycle;Max_cycle;Signal;HPM_P1;HPM_P2
2021/12/12 00:02:49;;;;;;;62.28;32.58;;;;;;;;;;5028616;28;20056;-41
2021/12/12 00:05:17;;;;;;;61.67;32.45;;;;;;;;;;5029188;28;20122;-43
2021/12/12 00:07:43;;;;;;;51.75;29.23;;;;;;;;;;5025004;28;20559;-42
2021/12/12 00:10:12;;;;;;;52.20;29.20;;;;;;;;;;5028967;28;20033;-42
2021/12/12 00:12:41;;;;;;;55.47;30.15;;;;;;;;;;5028750;28;20092;-44
2021/12/12 00:15:08;;;;;;;58.88;32.05;;;;;;;;;;5030967;28;20030;-50
2021/12/12 00:17:34;;;;;;;54.17;29.05;;;;;;;;;;5030205;28;20143;-47
2021/12/12 00:20:00;;;;;;;62.45;32.25;;;;;;;;;;5026213;28;20459;-41
2021/12/12 00:22:28;;;;;;;49.45;28.45;;;;;;;;;;5029476;28;20024;-45
2021/12/12 00:24:55;;;;;;;54.00;28.02;;;;;;;;;;5032292;28;20025;-42
2021/12/12 00:27:21;;;;;;;55.97;30.58;;;;;;;;;;5032208;28;20389;-41
2021/12/12 00:29:48;;;;;;;60.08;31.88;;;;;;;;;;5026606;28;20041;-41
2021/12/12 00:32:16;;;;;;;57.83;29.02;;;;;;;;;;5031630;28;20040;-42
2021/12/12 00:34:53;;;;;;;60.78;32.03;;;;;;;;;;5037761;28;20029;-50
2021/12/12 00:37:20;;;;;;;46.08;26.80;;;;;;;;;;5056082;28;20528;-40
2021/12/12 00:39:50;;;;;;;51.80;27.95;;;;;;;;;;5055914;28;20105;-46
2021/12/12 00:42:19;;;;;;;55.42;30.90;;;;;;;;;;5055713;28;20025;-50
2021/12/12 00:44:47;;;;;;;56.45;29.80;;;;;;;;;;5055111;28;20107;-51
2021/12/12 00:47:13;;;;;;;65.45;34.53;;;;;;;;;;5055404;28;20028;-51
2021/12/12 00:49:40;;;;;;;54.58;28.73;;;;;;;;;;5055302;28;20086;-48
2021/12/12 00:52:08;;;;;;;47.72;28.25;;;;;;;;;;5055379;28;20477;-44
2021/12/12 00:54:35;;;;;;;61.45;32.00;;;;;;;;;;5055585;28;20028;-40
2021/12/12 00:57:02;;;;;;;69.20;35.10;;;;;;;;;;5055460;28;20029;-47
2021/12/12 00:59:29;;;;;;;57.58;31.98;;;;;;;;;;5055374;28;20381;-42
2021/12/12 01:01:58;;;;;;;68.65;34.10;;;;;;;;;;5055271;28;20158;-45
2021/12/12 01:04:40;;;;;;;46.88;26.55;;;;;;;;;;5055294;28;20072;-47
2021/12/12 01:07:08;;;;;;;57.70;28.63;;;;;;;;;;5055092;28;20021;-43
2021/12/12 01:09:36;;;;;;;59.60;30.65;;;;;;;;;;5055183;28;20116;-44
2021/12/12 01:12:05;;;;;;;42.80;24.65;;;;;;;;;;5055060;28;20174;-47
2021/12/12 01:14:37;;;;;;;38.33;23.00;;;;;;;;;;5054920;28;20033;-50
2021/12/12 01:17:08;;;;;;;52.42;27.27;;;;;;;;;;5054922;28;20151;-45
2021/12/12 01:19:40;;;;;;;42.60;24.52;;;;;;;;;;5054938;28;20025;-49
2021/12/12 01:22:08;;;;;;;43.88;25.23;;;;;;;;;;5055154;28;20032;-48
2021/12/12 01:24:37;;;;;;;46.00;25.90;;;;;;;;;;5054964;28;20067;-48
2021/12/12 01:27:04;;;;;;;43.53;23.83;;;;;;;;;;5054906;28;20155;-45
2021/12/12 01:29:31;;;;;;;52.58;26.63;;;;;;;;;;5054808;28;20024;-43
2021/12/12 01:32:00;;;;;;;47.10;27.35;;;;;;;;;;5054723;28;20033;-48
2021/12/12 01:34:29;;;;;;;43.90;24.55;;;;;;;;;;5054662;28;20029;-41
2021/12/12 01:39:29;;;;;;;47.17;25.33;;;;;;;;;;5054820;28;20162;-51
2021/12/12 01:42:31;;;;;;;49.55;27.50;;;;;;;;;;5054525;28;20032;-51
2021/12/12 01:44:59;;;;;;;43.67;23.63;;;;;;;;;;4993020;28;20069;-52
2021/12/12 01:47:28;;;;;;;44.20;23.52;;;;;;;;;;4993064;28;20146;-51
2021/12/12 01:49:57;;;;;;;45.65;26.10;;;;;;;;;;4993034;28;20057;-49
2021/12/12 01:52:26;;;;;;;44.20;25.20;;;;;;;;;;4992870;28;20046;-49
2021/12/12 01:54:56;;;;;;;45.70;24.42;;;;;;;;;;4993075;28;20031;-48
2021/12/12 01:57:26;;;;;;;37.17;20.95;;;;;;;;;;4992428;28;20045;-49
2021/12/12 01:59:54;;;;;;;40.78;22.92;;;;;;;;;;4992956;28;20161;-43
2021/12/12 02:02:23;;;;;;;43.47;23.17;;;;;;;;;;4992876;28;20042;-41
2021/12/12 02:04:51;;;;;;;55.63;29.27;;;;;;;;;;4992635;28;20027;-51
2021/12/12 02:07:19;;;;;;;44.55;23.92;;;;;;;;;;4992838;28;20160;-40
2021/12/12 02:09:46;;;;;;;45.30;23.88;;;;;;;;;;4976579;28;20042;-47
2021/12/12 02:12:12;;;;;;;49.85;27.50;;;;;;;;;;4992570;28;20539;-41
2021/12/12 02:14:40;;;;;;;53.13;27.90;;;;;;;;;;4992662;28;20027;-49
2021/12/12 02:17:15;;;;;;;49.17;27.42;;;;;;;;;;4992519;28;20133;-43
2021/12/12 02:20:00;;;;;;;43.00;24.23;;;;;;;;;;5072764;28;20392;-40
2021/12/12 02:22:51;;;;;;;56.47;28.45;;;;;;;;;;5054029;28;20031;-47
2021/12/12 02:36:29;;;;;;;36.42;20.58;;;;;;;;;;5012345;28;20045;-50
2021/12/12 02:38:55;;;;;;;41.50;22.15;;;;;;;;;;5011971;28;20072;-44
2021/12/12 02:41:22;;;;;;;37.25;21.05;;;;;;;;;;5012137;28;20077;-39
2021/12/12 02:43:54;;;;;;;38.60;20.63;;;;;;;;;;5011756;28;20034;-47
2021/12/12 02:46:27;;;;;;;45.90;25.77;;;;;;;;;;5011798;28;20040;-50
2021/12/12 02:48:58;;;;;;;42.63;23.65;;;;;;;;;;5011863;28;20041;-50
2021/12/12 02:51:25;;;;;;;50.17;25.67;;;;;;;;;;5011772;28;20439;-40
2021/12/12 02:53:53;;;;;;;39.35;21.25;;;;;;;;;;5011706;28;20556;-51
2021/12/12 02:56:21;;;;;;;43.90;22.38;;;;;;;;;;5011918;28;20044;-48
2021/12/12 02:58:48;;;;;;;43.05;21.65;;;;;;;;;;5011738;28;20041;-47
2021/12/12 03:01:27;;;;;;;42.67;24.05;;;;;;;;;;5011572;28;20088;-44
2021/12/12 03:03:53;;;;;;;46.17;24.80;;;;;;;;;;5011559;28;20033;-47
2021/12/12 03:06:21;;;;;;;43.63;23.20;;;;;;;;;;5011528;28;20010;-40
2021/12/12 03:08:49;;;;;;;44.42;24.27;;;;;;;;;;5045832;28;20033;-51
2021/12/12 03:11:15;;;;;;;41.97;23.48;;;;;;;;;;5053193;28;20064;-49
2021/12/12 03:13:42;;;;;;;44.47;22.73;;;;;;;;;;5053113;28;20029;-43
2021/12/12 03:16:09;;;;;;;49.20;26.00;;;;;;;;;;5053073;28;20055;-50
2021/12/12 03:18:39;;;;;;;39.60;23.15;;;;;;;;;;5053407;28;20021;-52
2021/12/12 03:21:15;;;;;;;45.72;23.50;;;;;;;;;;5053199;28;20033;-51
2021/12/12 03:23:42;;;;;;;41.03;22.88;;;;;;;;;;5053065;28;20031;-48
2021/12/12 03:26:09;;;;;;;42.72;22.70;;;;;;;;;;5053103;28;20075;-45
2021/12/12 03:28:37;;;;;;;34.97;19.48;;;;;;;;;;5053233;28;20048;-40
2021/12/12 03:31:05;;;;;;;40.95;23.67;;;;;;;;;;5052908;28;20031;-43
2021/12/12 03:33:32;;;;;;;46.35;23.17;;;;;;;;;;5053239;28;20025;-50
2021/12/12 03:35:59;;;;;;;34.80;18.98;;;;;;;;;;5038104;28;20022;-43
2021/12/12 03:38:27;;;;;;;40.78;21.27;;;;;;;;;;5033212;28;20025;-42
2021/12/12 03:40:54;;;;;;;37.85;21.67;;;;;;;;;;5032176;28;20543;-51
2021/12/12 03:43:20;;;;;;;39.55;21.15;;;;;;;;;;5033051;28;20496;-44
2021/12/12 03:45:47;;;;;;;47.05;23.60;;;;;;;;;;5033130;28;20466;-48
2021/12/12 03:48:16;;;;;;;43.33;24.70;;;;;;;;;;5033241;28;20022;-50
2021/12/12 03:50:43;;;;;;;42.35;22.13;;;;;;;;;;5032958;28;20561;-50
2021/12/12 03:53:09;;;;;;;42.83;23.90;;;;;;;;;;5033002;28;20393;-48
2021/12/12 03:55:36;;;;;;;42.30;21.63;;;;;;;;;;5033022;28;20021;-51
2021/12/12 03:58:03;;;;;;;40.40;23.17;;;;;;;;;;5032887;28;20028;-46
2021/12/12 04:00:50;;;;;;;43.17;23.30;;;;;;;;;;5032919;28;20116;-42
2021/12/12 04:03:16;;;;;;;41.42;22.83;;;;;;;;;;5032914;28;20025;-42
2021/12/12 04:05:47;;;;;;;45.50;24.23;;;;;;;;;;5033081;28;20017;-44
2021/12/12 04:08:13;;;;;;;43.28;23.77;;;;;;;;;;5032895;28;20021;-49
2021/12/12 04:10:39;;;;;;;48.53;25.05;;;;;;;;;;5032914;28;20493;-49
2021/12/12 04:13:06;;;;;;;44.03;24.50;;;;;;;;;;5032772;28;20109;-43
2021/12/12 04:15:32;;;;;;;48.03;23.73;;;;;;;;;;5032383;28;20038;-48
2021/12/12 04:17:58;;;;;;;44.63;24.40;;;;;;;;;;5032924;28;20036;-47
2021/12/12 04:20:29;;;;;;;46.22;23.75;;;;;;;;;;5033109;28;20366;-49
2021/12/12 04:22:55;;;;;;;44.00;24.73;;;;;;;;;;5036333;28;20030;-48
2021/12/12 04:25:22;;;;;;;45.22;23.73;;;;;;;;;;5036263;28;20446;-47
2021/12/12 04:27:48;;;;;;;50.13;26.98;;;;;;;;;;5036101;28;20474;-51
2021/12/12 04:30:14;;;;;;;46.35;25.27;;;;;;;;;;5036054;28;20466;-45
2021/12/12 04:32:41;;;;;;;50.85;28.02;;;;;;;;;;5036025;28;20123;-49
2021/12/12 04:35:09;;;;;;;43.28;24.10;;;;;;;;;;5035962;28;20030;-50
2021/12/12 04:37:36;;;;;;;48.63;25.25;;;;;;;;;;5034812;28;20104;-40
2021/12/12 04:40:02;;;;;;;46.20;24.77;;;;;;;;;;5036235;28;20029;-47
2021/12/12 04:42:28;;;;;;;44.88;24.35;;;;;;;;;;5036006;28;20087;-49
2021/12/12 04:44:57;;;;;;;45.65;24.55;;;;;;;;;;5036021;28;20064;-50
2021/12/12 04:50:11;;;;;;;43.63;24.38;;;;;;;;;;5035785;28;20088;-51
2021/12/12 04:52:57;;;;;;;41.53;22.52;;;;;;;;;;5035823;28;20044;-51
2021/12/12 04:55:29;;;;;;;46.17;25.92;;;;;;;;;;5035705;28;20104;-52
2021/12/12 04:58:11;;;;;;;49.38;24.05;;;;;;;;;;5035633;28;20032;-49
2021/12/12 05:01:03;;;;;;;44.47;25.70;;;;;;;;;;5035609;28;20393;-51
2021/12/12 05:03:47;;;;;;;48.35;25.45;;;;;;;;;;5032788;28;20045;-51
2021/12/12 05:06:19;;;;;;;47.60;24.60;;;;;;;;;;5035544;28;20033;-47
2021/12/12 05:08:48;;;;;;;47.63;26.02;;;;;;;;;;5035611;28;20029;-42
2021/12/12 05:11:19;;;;;;;46.03;24.73;;;;;;;;;;5035268;28;20125;-40
2021/12/12 05:13:51;;;;;;;48.03;25.92;;;;;;;;;;5035250;28;20036;-51
2021/12/12 05:16:21;;;;;;;49.35;25.85;;;;;;;;;;5034938;28;20049;-41
2021/12/12 05:18:52;;;;;;;51.22;26.55;;;;;;;;;;5035405;28;20072;-43
2021/12/12 05:21:24;;;;;;;45.08;25.30;;;;;;;;;;5035163;28;20025;-45
2021/12/12 05:23:50;;;;;;;;;;;;;;;;;;5035591;28;20371;-47
2021/12/12 05:26:17;;;;;;;51.40;26.27;;;;;;;;;;5035061;28;20336;-47
2021/12/12 05:28:48;;;;;;;48.05;26.05;;;;;;;;;;5035176;28;20022;-48
2021/12/12 05:31:15;;;;;;;46.00;25.83;;;;;;;;;;5034059;28;20057;-43
2021/12/12 05:33:42;;;;;;;53.28;26.70;;;;;;;;;;5034946;28;20099;-49
2021/12/12 05:36:09;;;;;;;46.65;25.70;;;;;;;;;;5034985;28;20106;-44
2021/12/12 05:38:35;;;;;;;50.88;26.15;;;;;;;;;;5034979;28;20033;-48
2021/12/12 05:41:01;;;;;;;46.40;23.20;;;;;;;;;;5034820;28;20112;-48
2021/12/12 05:43:28;;;;;;;45.38;24.42;;;;;;;;;;5034618;28;20025;-45
2021/12/12 05:45:55;;;;;;;47.47;26.30;;;;;;;;;;5034634;28;20037;-47
2021/12/12 05:48:22;;;;;;;45.05;25.23;;;;;;;;;;5034697;28;20025;-39
2021/12/12 05:50:49;;;;;;;48.97;26.30;;;;;;;;;;5034626;28;20504;-41
2021/12/12 05:53:16;;;;;;;46.30;25.52;;;;;;;;;;5034528;28;20033;-49
2021/12/12 05:55:42;;;;;;;46.17;24.25;;;;;;;;;;5034585;28;20024;-41
2021/12/12 05:58:10;;;;;;;46.10;24.70;;;;;;;;;;5034418;28;20026;-43
2021/12/12 06:00:40;;;;;;;43.38;23.25;;;;;;;;;;5034708;28;20048;-41
2021/12/12 06:03:11;;;;;;;40.63;22.75;;;;;;;;;;5034439;28;20053;-43
2021/12/12 06:05:37;;;;;;;47.05;23.45;;;;;;;;;;5034432;28;20030;-49
2021/12/12 06:08:04;;;;;;;45.00;23.92;;;;;;;;;;5034562;28;20465;-49
2021/12/12 06:10:31;;;;;;;45.92;24.58;;;;;;;;;;5034310;28;20040;-45
2021/12/12 06:12:57;;;;;;;44.67;25.00;;;;;;;;;;5034112;28;20048;-50
2021/12/12 06:15:27;;;;;;;41.67;23.13;;;;;;;;;;5033954;28;20040;-43
2021/12/12 06:17:54;;;;;;;42.72;23.58;;;;;;;;;;5034214;28;20033;-45
2021/12/12 06:20:21;;;;;;;41.38;22.98;;;;;;;;;;5034099;28;20436;-50
2021/12/12 06:22:47;;;;;;;47.90;23.30;;;;;;;;;;5034030;28;20033;-46
2021/12/12 06:25:14;;;;;;;47.78;25.00;;;;;;;;;;5033960;28;20426;-41
2021/12/12 06:27:40;;;;;;;43.30;23.13;;;;;;;;;;5033963;28;20031;-40
2021/12/12 06:30:08;;;;;;;44.58;24.83;;;;;;;;;;5033813;28;20050;-43
2021/12/12 06:32:34;;;;;;;44.78;24.58;;;;;;;;;;5033962;28;20029;-44
2021/12/12 06:35:01;;;;;;;47.88;24.85;;;;;;;;;;5033918;28;20028;-48
2021/12/12 06:37:27;;;;;;;43.42;23.02;;;;;;;;;;5034059;28;20104;-44
2021/12/12 06:39:55;;;;;;;45.30;22.83;;;;;;;;;;5033798;28;20030;-47
2021/12/12 06:42:21;;;;;;;43.28;23.75;;;;;;;;;;5033291;28;20108;-48
2021/12/12 06:44:47;;;;;;;44.45;24.55;;;;;;;;;;5033425;28;20037;-48
2021/12/12 06:47:15;;;;;;;44.55;24.10;;;;;;;;;;5033633;28;20036;-43
2021/12/12 06:49:43;;;;;;;42.90;23.52;;;;;;;;;;5033711;28;20021;-40
2021/12/12 06:52:10;;;;;;;47.20;23.98;;;;;;;;;;5033431;28;20139;-42
2021/12/12 06:54:37;;;;;;;40.17;23.58;;;;;;;;;;5033567;28;20025;-42
2021/12/12 06:57:07;;;;;;;45.90;25.27;;;;;;;;;;5033413;28;20021;-42
2021/12/12 06:59:34;;;;;;;40.50;23.05;;;;;;;;;;5034065;28;20465;-46
2021/12/12 07:02:01;;;;;;;41.67;23.10;;;;;;;;;;5032218;28;20059;-44
2021/12/12 07:04:28;;;;;;;39.92;22.60;;;;;;;;;;5033477;28;20048;-41
2021/12/12 07:06:58;;;;;;;44.42;24.45;;;;;;;;;;5032190;28;20029;-43
2021/12/12 07:09:24;;;;;;;44.67;23.77;;;;;;;;;;5033373;28;20032;-46
2021/12/12 07:11:51;;;;;;;47.40;25.23;;;;;;;;;;5033233;28;20040;-39
2021/12/12 07:14:17;;;;;;;39.88;22.42;;;;;;;;;;5033333;28;20112;-39
2021/12/12 07:16:45;;;;;;;41.00;22.88;;;;;;;;;;5033040;28;20057;-46
2021/12/12 07:19:14;;;;;;;40.45;23.40;;;;;;;;;;5033253;28;20037;-46
2021/12/12 07:21:41;;;;;;;45.70;22.83;;;;;;;;;;5033185;28;20025;-46
2021/12/12 07:24:07;;;;;;;41.78;23.50;;;;;;;;;;5033318;28;20032;-48
2021/12/12 07:26:34;;;;;;;41.30;22.40;;;;;;;;;;5033175;28;20026;-45
2021/12/12 07:29:02;;;;;;;40.45;21.88;;;;;;;;;;5033150;28;20022;-45
2021/12/12 07:31:30;;;;;;;40.75;22.05;;;;;;;;;;5033230;28;20033;-44
2021/12/12 07:33:57;;;;;;;42.72;22.88;;;;;;;;;;5032992;28;20090;-44
2021/12/12 07:36:25;;;;;;;35.90;20.58;;;;;;;;;;5033132;28;20021;-43
2021/12/12 07:38:56;;;;;;;38.28;21.90;;;;;;;;;;5033065;28;20030;-49
2021/12/12 07:41:23;;;;;;;38.57;21.30;;;;;;;;;;5033257;28;20029;-49
2021/12/12 07:43:50;;;;;;;39.13;22.33;;;;;;;;;;5033000;28;20021;-50
2021/12/12 07:46:16;;;;;;;41.72;21.60;;;;;;;;;;5033135;28;20488;-47
2021/12/12 07:48:49;;;;;;;38.33;22.15;;;;;;;;;;5033242;28;20053;-48
2021/12/12 07:51:16;;;;;;;37.05;21.20;;;;;;;;;;5033132;28;20048;-46
2021/12/12 07:53:42;;;;;;;36.60;20.75;;;;;;;;;;5033167;28;20049;-45
2021/12/12 07:56:08;;;;;;;39.33;21.48;;;;;;;;;;5036080;28;20429;-47
2021/12/12 07:58:36;;;;;;;37.92;21.33;;;;;;;;;;5036888;28;20036;-49
2021/12/12 08:01:02;;;;;;;40.33;22.52;;;;;;;;;;5036791;28;20454;-46
2021/12/12 08:03:31;;;;;;;40.65;22.42;;;;;;;;;;5036807;28;20025;-48
2021/12/12 08:06:00;;;;;;;39.22;21.45;;;;;;;;;;5036612;28;20022;-48
2021/12/12 08:08:26;;;;;;;39.92;21.88;;;;;;;;;;5036388;28;20060;-47
2021/12/12 08:10:53;;;;;;;37.97;20.85;;;;;;;;;;5036658;28;20079;-47
2021/12/12 08:13:20;;;;;;;38.90;22.13;;;;;;;;;;5036463;28;20029;-41
2021/12/12 08:15:47;;;;;;;40.20;22.23;;;;;;;;;;5036247;28;20049;-42
2021/12/12 08:18:15;;;;;;;37.55;21.80;;;;;;;;;;5036405;28;20036;-43
2021/12/12 08:20:43;;;;;;;36.55;21.38;;;;;;;;;;5036183;28;20394;-41
2021/12/12 08:23:11;;;;;;;38.40;21.92;;;;;;;;;;5036249;28;20045;-45
2021/12/12 08:25:38;;;;;;;43.25;21.30;;;;;;;;;;5036364;28;20029;-46
2021/12/12 08:28:05;;;;;;;39.88;21.80;;;;;;;;;;5036359;28;20116;-51
2021/12/12 08:30:32;;;;;;;37.60;20.38;;;;;;;;;;5036140;28;20036;-46
2021/12/12 08:32:59;;;;;;;36.92;20.88;;;;;;;;;;5035917;28;20108;-42
2021/12/12 08:35:30;;;;;;;44.05;22.48;;;;;;;;;;5036016;28;20013;-42
2021/12/12 08:37:57;;;;;;;37.75;22.38;;;;;;;;;;5036134;28;20083;-42
2021/12/12 08:40:25;;;;;;;34.92;20.42;;;;;;;;;;5035872;28;20100;-40
2021/12/12 08:42:53;;;;;;;34.40;20.52;;;;;;;;;;5035957;28;20033;-47
2021/12/12 08:45:23;;;;;;;38.75;22.20;;;;;;;;;;5035383;28;20076;-42
2021/12/12 08:47:50;;;;;;;56.72;29.98;;;;;;;;;;5035468;28;20022;-52
2021/12/12 08:50:20;;;;;;;66.40;32.15;;;;;;;;;;5035230;28;20049;-45
2021/12/12 08:52:47;;;;;;;61.70;31.38;;;;;;;;;;5035102;28;20033;-49
2021/12/12 08:55:19;;;;;;;50.47;27.63;;;;;;;;;;5035408;28;20100;-43
2021/12/12 08:57:57;;;;;;;54.08;27.85;;;;;;;;;;5035306;28;20026;-49
2021/12/12 09:00:25;;;;;;;73.63;38.05;;;;;;;;;;5029268;28;20037;-50
2021/12/12 09:02:53;;;;;;;77.88;39.80;;;;;;;;;;5030908;28;20839;-45
2021/12/12 09:05:25;;;;;;;76.50;39.88;;;;;;;;;;5031120;28;20025;-46
2021/12/12 09:07:52;;;;;;;67.38;34.08;;;;;;;;;;5029438;28;20178;-45
2021/12/12 09:10:24;;;;;;;58.83;30.63;;;;;;;;;;5031954;28;20651;-50
2021/12/12 09:13:06;;;;;;;62.60;32.90;;;;;;;;;;5031049;28;20093;-50
2021/12/12 09:15:45;;;;;;;73.45;34.55;;;;;;;;;;5029462;28;20042;-42
2021/12/12 09:18:23;;;;;;;73.82;37.38;;;;;;;;;;5024901;28;20037;-48
2021/12/12 09:20:53;;;;;;;70.13;32.53;;;;;;;;;;5029979;28;20024;-44
2021/12/12 09:23:22;;;;;;;60.60;31.55;;;;;;;;;;5029376;28;20036;-44
2021/12/12 09:25:52;;;;;;;54.88;25.90;;;;;;;;;;5031402;28;20095;-45
2021/12/12 09:28:28;;;;;;;53.45;26.48;;;;;;;;;;5031350;28;20025;-45
2021/12/12 09:30:55;;;;;;;45.17;24.70;;;;;;;;;;5031144;28;20381;-43
2021/12/12 09:33:27;;;;;;;46.28;24.05;;;;;;;;;;5030266;28;20068;-48
2021/12/12 09:36:00;;;;;;;47.00;25.10;;;;;;;;;;5031142;28;20500;-50
2021/12/12 09:38:32;;;;;;;63.08;31.80;;;;;;;;;;5030828;28;20026;-43
2021/12/12 09:40:58;;;;;;;48.22;25.08;;;;;;;;;;5031164;28;20186;-46
2021/12/12 09:43:43;;;;;;;86.75;43.90;;;;;;;;;;5025776;28;20420;-41
2021/12/12 09:46:30;;;;;;;60.17;30.73;;;;;;;;;;5031183;28;20033;-45
2021/12/12 09:52:10;;;;;;;172.65;78.57;;;;;;;;;;5030944;28;20031;-43
2021/12/12 09:54:36;;;;;;;61.95;30.25;;;;;;;;;;5029930;28;20036;-45
2021/12/12 09:57:05;;;;;;;61.40;31.52;;;;;;;;;;5030744;28;20594;-41
2021/12/12 09:59:40;;;;;;;73.68;35.58;;;;;;;;;;5024893;28;20048;-43
2021/12/12 10:02:08;;;;;;;159.38;70.45;;;;;;;;;;5030291;28;20465;-44
2021/12/12 10:04:53;;;;;;;48.65;24.35;;;;;;;;;;5029914;28;20025;-43
2021/12/12 10:07:22;;;;;;;45.80;23.45;;;;;;;;;;5030228;28;20025;-46
2021/12/12 10:09:55;;;;;;;81.25;30.40;;;;;;;;;;5028739;28;20450;-45
2021/12/12 10:12:23;;;;;;;67.03;29.00;;;;;;;;;;5030461;28;20493;-49
2021/12/12 10:14:58;;;;;;;57.80;26.98;;;;;;;;;;5030764;28;20412;-49
2021/12/12 10:17:27;;;;;;;55.35;25.13;;;;;;;;;;5028725;28;20068;-46
2021/12/12 10:20:06;;;;;;;50.03;25.63;;;;;;;;;;5030263;28;21661;-43
2021/12/12 10:22:44;;;;;;;46.88;24.77;;;;;;;;;;5030510;28;20029;-41
2021/12/12 10:25:15;;;;;;;51.58;24.70;;;;;;;;;;5030214;28;20440;-44
2021/12/12 10:27:50;;;;;;;45.60;23.03;;;;;;;;;;5030425;28;20021;-45
2021/12/12 10:30:22;;;;;;;57.38;24.73;;;;;;;;;;5027987;28;20297;-42
2021/12/12 10:32:48;;;;;;;;;;;;;;;;;;5030452;28;20082;-42
2021/12/12 10:35:16;;;;;;;45.25;22.33;;;;;;;;;;5030332;28;19912;-46
2021/12/12 10:37:43;;;;;;;45.80;24.08;;;;;;;;;;5029339;28;20024;-43
2021/12/12 10:40:16;;;;;;;47.00;23.95;;;;;;;;;;5029996;28;20026;-42
2021/12/12 10:42:44;;;;;;;44.85;24.63;;;;;;;;;;5029586;28;20090;-44
2021/12/12 10:45:14;;;;;;;47.85;25.15;;;;;;;;;;5029814;28;20170;-42
2021/12/12 10:47:40;;;;;;;48.20;25.67;;;;;;;;;;5029908;28;20030;-41
2021/12/12 10:50:12;;;;;;;50.60;25.42;;;;;;;;;;5027382;28;20029;-47
2021/12/12 10:52:44;;;;;;;47.92;23.30;;;;;;;;;;5029895;28;20047;-46
2021/12/12 10:55:20;;;;;;;41.65;23.85;;;;;;;;;;5029510;28;20540;-47
2021/12/12 10:57:53;;;;;;;44.80;23.27;;;;;;;;;;5029777;28;20389;-42
2021/12/12 11:00:23;;;;;;;40.42;21.92;;;;;;;;;;5029791;28;20024;-43
2021/12/12 11:02:55;;;;;;;36.83;19.95;;;;;;;;;;5024390;28;20053;-43
2021/12/12 11:05:26;;;;;;;41.13;21.77;;;;;;;;;;5029485;28;20102;-45
2021/12/12 11:08:02;;;;;;;47.17;24.35;;;;;;;;;;5027745;28;20342;-46
2021/12/12 11:10:30;;;;;;;51.80;23.52;;;;;;;;;;5029642;28;20052;-43
2021/12/12 11:12:56;;;;;;;45.88;22.38;;;;;;;;;;5029090;28;20038;-44
2021/12/12 11:15:28;;;;;;;41.17;22.00;;;;;;;;;;5025285;28;20036;-45
2021/12/12 11:17:57;;;;;;;35.13;20.20;;;;;;;;;;5029688;28;20040;-48
2021/12/12 11:20:25;;;;;;;44.35;22.23;;;;;;;;;;5029807;28;20053;-43
2021/12/12 11:22:55;;;;;;;42.40;22.73;;;;;;;;;;5029305;28;20493;-47
2021/12/12 11:25:39;;;;;;;38.13;21.08;;;;;;;;;;5027688;28;20057;-49
2021/12/12 11:28:17;;;;;;;38.25;21.20;;;;;;;;;;5029321;28;20142;-47
2021/12/12 11:31:12;;;;;;;41.25;21.73;;;;;;;;;;5008825;28;20033;-48
2021/12/12 11:33:39;;;;;;;38.63;21.48;;;;;;;;;;5031115;28;20132;-47
2021/12/12 11:36:08;;;;;;;57.88;26.60;;;;;;;;;;5032939;28;20025;-46
2021/12/12 11:38:40;;;;;;;40.95;21.05;;;;;;;;;;5032054;28;20033;-45
2021/12/12 11:41:06;;;;;;;;;;;;;;;;;;5033754;28;20025;-44
2021/12/12 11:43:43;;;;;;;43.63;22.15;;;;;;;;;;5032784;28;19917;-46
2021/12/12 11:46:14;;;;;;;45.90;24.75;;;;;;;;;;5032972;28;20034;-45
2021/12/12 11:48:48;;;;;;;49.58;25.17;;;;;;;;;;5033346;28;20052;-44
2021/12/12 11:51:16;;;;;;;58.88;26.50;;;;;;;;;;5031479;28;20024;-44
2021/12/12 11:53:45;;;;;;;66.93;34.05;;;;;;;;;;5031726;28;20041;-46
2021/12/12 11:56:21;;;;;;;46.03;25.52;;;;;;;;;;5032533;28;20084;-45
2021/12/12 11:58:57;;;;;;;59.63;27.88;;;;;;;;;;5033576;28;20033;-46
2021/12/12 12:01:23;;;;;;;43.90;24.85;;;;;;;;;;5033008;28;20488;-47
2021/12/12 12:04:08;;;;;;;40.47;22.30;;;;;;;;;;5032118;28;20037;-44
2021/12/12 12:06:36;;;;;;;45.92;23.48;;;;;;;;;;5032134;28;20059;-44
2021/12/12 12:09:06;;;;;;;37.80;22.13;;;;;;;;;;5033258;28;20389;-46
2021/12/12 12:11:33;;;;;;;41.88;21.80;;;;;;;;;;5032667;28;20029;-47
2021/12/12 12:13:59;;;;;;;34.55;19.98;;;;;;;;;;5029834;28;20403;-46
2021/12/12 12:16:43;;;;;;;45.45;22.77;;;;;;;;;;5032016;28;20087;-47
2021/12/12 12:19:09;;;;;;;36.53;20.65;;;;;;;;;;5031247;28;20464;-46
2021/12/12 12:21:42;;;;;;;43.60;22.92;;;;;;;;;;5029966;28;20508;-45
2021/12/12 12:26:52;;;;;;;34.42;20.13;;;;;;;;;;5032443;28;20036;-46
2021/12/12 12:29:44;;;;;;;38.17;21.02;;;;;;;;;;5032275;28;20098;-45
2021/12/12 12:32:29;;;;;;;49.50;26.30;;;;;;;;;;5013399;28;20053;-44
2021/12/12 12:35:17;;;;;;;45.47;25.13;;;;;;;;;;5032258;28;20030;-49
2021/12/12 12:37:44;;;;;;;51.45;27.30;;;;;;;;;;5031417;28;20156;-46
2021/12/12 12:40:16;;;;;;;58.78;31.20;;;;;;;;;;5031803;28;20128;-47
2021/12/12 12:43:00;;;;;;;52.35;28.35;;;;;;;;;;5030944;28;20425;-45
2021/12/12 12:45:45;;;;;;;58.95;31.63;;;;;;;;;;5025451;28;20029;-50
2021/12/12 12:48:30;;;;;;;38.70;21.23;;;;;;;;;;5031324;28;20029;-50
2021/12/12 12:50:59;;;;;;;64.03;34.97;;;;;;;;;;5031596;28;20021;-49
2021/12/12 12:53:49;;;;;;;42.60;23.60;;;;;;;;;;5031600;28;20092;-48
2021/12/12 12:56:36;;;;;;;53.38;28.48;;;;;;;;;;4981453;28;20078;-49
2021/12/12 12:59:21;;;;;;;59.30;29.88;;;;;;;;;;4981565;28;20106;-49
2021/12/12 13:01:55;;;;;;;100.45;49.40;;;;;;;;;;4981750;28;20150;-46
2021/12/12 13:04:24;;;;;;;98.22;46.90;;;;;;;;;;4980745;28;20087;-49
2021/12/12 13:07:09;;;;;;;117.55;59.03;;;;;;;;;;4981513;28;20835;-47
2021/12/12 13:09:54;;;;;;;86.07;44.33;;;;;;;;;;4981622;28;20026;-50
2021/12/12 13:12:28;;;;;;;48.88;27.95;;;;;;;;;;4981742;28;20034;-46
2021/12/12 13:14:54;;;;;;;99.90;49.63;;;;;;;;;;4980023;28;20078;-51
2021/12/12 13:17:36;;;;;;;69.43;33.95;;;;;;;;;;4981213;28;20573;-49
2021/12/12 13:20:08;;;;;;;51.40;25.60;;;;;;;;;;4980667;28;20042;-51
2021/12/12 13:22:37;;;;;;;44.42;23.48;;;;;;;;;;4980987;28;20026;-48
2021/12/12 13:25:09;;;;;;;37.53;21.17;;;;;;;;;;4981400;28;20030;-47
2021/12/12 13:27:53;;;;;;;42.55;21.85;;;;;;;;;;4981097;28;20326;-48
2021/12/12 13:30:28;;;;;;;41.13;22.30;;;;;;;;;;4981619;28;20030;-49
2021/12/12 13:33:13;;;;;;;59.20;29.27;;;;;;;;;;4976277;28;20044;-50
2021/12/12 13:35:48;;;;;;;51.50;27.83;;;;;;;;;;5031762;28;20376;-48
2021/12/12 13:38:18;;;;;;;41.97;23.38;;;;;;;;;;5006631;28;20956;-47
2021/12/12 13:40:58;;;;;;;42.25;23.95;;;;;;;;;;5029686;28;20365;-51
2021/12/12 13:43:36;;;;;;;43.28;24.33;;;;;;;;;;5031265;28;20017;-47
2021/12/12 13:46:09;;;;;;;39.08;22.80;;;;;;;;;;5030232;28;20439;-51
2021/12/12 13:48:44;;;;;;;37.42;21.95;;;;;;;;;;5031404;28;20432;-50
2021/12/12 13:51:26;;;;;;;59.70;29.85;;;;;;;;;;5031388;28;20548;-48
2021/12/12 13:54:11;;;;;;;55.97;30.85;;;;;;;;;;5029482;28;20216;-48
2021/12/12 13:56:37;;;;;;;50.42;24.83;;;;;;;;;;5030470;28;20037;-47
2021/12/12 13:59:06;;;;;;;73.75;35.83;;;;;;;;;;5030873;28;20036;-48
2021/12/12 14:01:44;;;;;;;47.03;24.58;;;;;;;;;;5026202;28;20524;-48
2021/12/12 14:04:31;;;;;;;62.85;27.27;;;;;;;;;;5029160;28;20021;-51
2021/12/12 14:06:57;;;;;;;40.15;21.73;;;;;;;;;;4980771;28;20034;-51
2021/12/12 14:09:27;;;;;;;50.78;26.70;;;;;;;;;;4979770;28;20165;-47
2021/12/12 14:11:55;;;;;;;39.72;21.58;;;;;;;;;;4979240;28;20054;-48
2021/12/12 14:14:30;;;;;;;36.20;19.90;;;;;;;;;;4979797;28;20069;-49
2021/12/12 14:17:08;;;;;;;28.55;16.70;;;;;;;;;;4979902;28;20086;-53
2021/12/12 14:19:46;;;;;;;33.20;17.58;;;;;;;;;;4979898;28;20036;-51
2021/12/12 14:22:12;;;;;;;41.90;21.75;;;;;;;;;;4982806;28;20932;-52
2021/12/12 14:24:38;;;;;;;44.90;22.50;;;;;;;;;;4978601;28;20048;-49
2021/12/12 14:27:06;;;;;;;33.30;18.13;;;;;;;;;;4981099;28;20789;-52
2021/12/12 14:29:34;;;;;;;32.72;19.42;;;;;;;;;;4979127;28;20085;-51
2021/12/12 14:32:11;;;;;;;38.10;20.15;;;;;;;;;;4975048;28;20546;-52
2021/12/12 14:34:51;;;;;;;37.38;18.70;;;;;;;;;;4978956;28;20034;-53
2021/12/12 14:37:19;;;;;;;32.37;17.77;;;;;;;;;;4980885;28;20034;-49
2021/12/12 14:39:47;;;;;;;34.40;18.88;;;;;;;;;;4979761;28;20436;-53
2021/12/12 14:42:24;;;;;;;48.05;25.02;;;;;;;;;;4943336;28;20054;-49
2021/12/12 14:44:53;;;;;;;145.45;60.15;;;;;;;;;;5019112;28;20091;-53
2021/12/12 14:47:22;;;;;;;96.90;41.90;;;;;;;;;;5043787;28;20029;-52
2021/12/12 14:49:50;;;;;;;46.90;25.13;;;;;;;;;;5053311;28;20024;-48
2021/12/12 14:52:21;;;;;;;43.50;21.67;;;;;;;;;;5037301;28;20079;-48
2021/12/12 14:54:53;;;;;;;100.10;41.23;;;;;;;;;;5028177;28;20034;-45
2021/12/12 14:57:25;;;;;;;51.65;23.63;;;;;;;;;;5027914;28;20095;-48
2021/12/12 14:59:55;;;;;;;62.53;30.92;;;;;;;;;;5029588;28;20040;-48
2021/12/12 15:02:23;;;;;;;96.45;44.35;;;;;;;;;;5026830;28;20032;-48